Time;durP1;ratioP1;P1;durP2;ratioP2;P2;SDS_P1;SDS_P2;PMS_P1;PMS_P2;Temp;Humidity;BMP_temperature;BMP_pressure;BME280_temperature;BME280_humidity;BME280_pressure;Samples;Min_cycle;Max_cycle;Signal;HPM_P1;HPM_P2
2023/08/15 00:00:00;;;;;;;6.78;4.47;;;28.10;99.90;;;;;;10079644;28;20031;-68
2023/08/15 00:04:50;;;;;;;6.38;4.28;;;28.10;99.90;;;;;;10097927;28;20031;-68
2023/08/15 00:09:41;;;;;;;7.85;4.63;;;28.10;99.90;;;;;;10097502;28;20112;-69
2023/08/15 00:14:32;;;;;;;6.10;4.55;;;28.00;99.90;;;;;;10100174;28;20051;-69
2023/08/15 00:19:23;;;;;;;7.07;4.53;;;28.00;99.90;;;;;;10097588;28;20029;-69
2023/08/15 00:24:13;;;;;;;8.90;5.28;;;27.90;99.90;;;;;;10097764;28;20036;-68
2023/08/15 00:29:04;;;;;;;6.28;4.63;;;27.90;99.90;;;;;;10091603;28;20025;-69
2023/08/15 00:33:55;;;;;;;9.38;4.68;;;27.80;99.90;;;;;;10099022;28;20047;-68
2023/08/15 00:38:46;;;;;;;9.48;4.57;;;27.90;99.90;;;;;;10079492;28;20033;-69
2023/08/15 00:43:37;;;;;;;7.97;4.57;;;28.10;99.90;;;;;;10097004;28;20521;-68
2023/08/15 00:48:30;;;;;;;5.90;4.72;;;27.90;99.90;;;;;;10096898;28;20037;-68
2023/08/15 00:53:20;;;;;;;6.22;5.15;;;27.90;99.90;;;;;;10096564;28;20252;-69
2023/08/15 00:58:11;;;;;;;6.97;4.03;;;28.00;99.90;;;;;;10095663;28;20318;-68
2023/08/15 01:03:04;;;;;;;9.60;4.13;;;27.90;99.90;;;;;;10096317;28;20021;-68
2023/08/15 01:07:56;;;;;;;6.93;4.50;;;27.80;99.90;;;;;;10091745;28;20017;-68
2023/08/15 01:13:09;;;;;;;5.50;3.95;;;27.80;99.90;;;;;;10098725;28;20076;-68
2023/08/15 01:18:11;;;;;;;7.72;4.32;;;27.70;99.90;;;;;;10089076;28;20061;-68
2023/08/15 01:23:06;;;;;;;6.32;4.10;;;27.60;99.90;;;;;;10096327;28;20035;-68
2023/08/15 01:27:56;;;;;;;8.32;4.45;;;27.60;99.90;;;;;;10095723;28;20056;-68
2023/08/15 01:33:09;;;;;;;5.05;3.95;;;27.30;99.90;;;;;;10097779;28;20045;-68
2023/08/15 01:38:07;;;;;;;6.63;4.10;;;27.20;99.90;;;;;;10103407;28;20028;-69
2023/08/15 01:43:00;;;;;;;7.45;4.40;;;27.10;99.90;;;;;;10103524;28;20119;-69
2023/08/15 01:47:52;;;;;;;6.85;4.05;;;27.20;99.90;;;;;;10103188;28;20558;-68
2023/08/15 01:52:42;;;;;;;5.70;4.30;;;27.20;99.90;;;;;;10097943;28;20041;-68
2023/08/15 01:57:33;;;;;;;9.02;4.90;;;27.30;99.90;;;;;;10102114;28;20017;-69
2023/08/15 02:02:24;;;;;;;7.15;4.18;;;27.30;99.90;;;;;;10102597;28;20029;-69
2023/08/15 02:07:14;;;;;;;7.82;5.00;;;27.10;99.90;;;;;;10101749;28;20033;-70
2023/08/15 02:12:05;;;;;;;6.78;4.57;;;27.00;99.90;;;;;;10104924;28;20044;-68
2023/08/15 02:16:56;;;;;;;7.68;4.50;;;27.00;99.90;;;;;;10102561;28;20498;-68
2023/08/15 02:21:47;;;;;;;6.70;4.25;;;26.90;99.90;;;;;;10103189;28;20040;-68
2023/08/15 02:26:38;;;;;;;7.20;4.60;;;27.00;99.90;;;;;;10083803;28;20471;-68
2023/08/15 02:31:30;;;;;;;7.47;4.53;;;26.90;99.90;;;;;;10098989;28;20051;-68
2023/08/15 02:36:21;;;;;;;9.07;5.95;;;26.80;99.90;;;;;;10099226;28;20018;-69
2023/08/15 02:41:12;;;;;;;7.00;4.88;;;26.80;99.90;;;;;;10083837;28;20415;-68
2023/08/15 02:46:03;;;;;;;9.18;4.93;;;26.80;99.90;;;;;;10100751;28;20040;-69
2023/08/15 02:50:54;;;;;;;7.97;4.47;;;26.80;99.90;;;;;;10099441;28;20036;-68
2023/08/15 02:55:48;;;;;;;7.57;4.35;;;26.80;99.90;;;;;;10100513;28;20052;-68
2023/08/15 03:00:39;;;;;;;;;;;26.80;99.90;;;;;;10098784;28;20098;-68
2023/08/15 03:05:30;;;;;;;6.72;3.80;;;26.80;99.90;;;;;;10080190;28;19913;-68
2023/08/15 03:10:21;;;;;;;6.03;3.80;;;26.70;99.90;;;;;;10097750;28;20431;-68
2023/08/15 03:15:12;;;;;;;5.70;3.28;;;26.50;99.90;;;;;;10099534;28;20391;-68
2023/08/15 03:20:04;;;;;;;5.75;2.72;;;26.30;99.90;;;;;;10100773;28;20025;-68
2023/08/15 03:24:57;;;;;;;5.35;3.25;;;26.20;99.90;;;;;;10099235;28;20056;-67
2023/08/15 03:29:48;;;;;;;4.97;3.15;;;26.30;99.90;;;;;;10099478;28;20074;-68
2023/08/15 03:34:39;;;;;;;7.93;3.17;;;26.30;99.90;;;;;;10080897;28;20502;-67
2023/08/15 03:39:30;;;;;;;6.20;3.20;;;26.30;99.90;;;;;;10099011;28;20033;-68
2023/08/15 03:44:21;;;;;;;5.72;3.53;;;26.40;99.90;;;;;;10098710;28;20040;-67
2023/08/15 03:49:12;;;;;;;4.75;2.75;;;26.20;99.90;;;;;;10096004;28;20024;-68
2023/08/15 03:54:04;;;;;;;6.20;3.20;;;25.90;99.90;;;;;;10098094;28;20040;-67
2023/08/15 03:58:54;;;;;;;5.82;3.10;;;26.00;99.90;;;;;;10097504;28;20021;-68
2023/08/15 04:03:49;;;;;;;6.95;3.13;;;26.00;99.90;;;;;;10097475;28;20033;-67
2023/08/15 04:08:40;;;;;;;5.32;3.30;;;26.10;99.90;;;;;;10096672;28;20076;-67
2023/08/15 04:13:31;;;;;;;6.10;3.22;;;26.00;99.90;;;;;;10100194;28;20053;-68
2023/08/15 04:18:22;;;;;;;8.65;3.05;;;25.90;99.90;;;;;;10096283;28;20029;-68
2023/08/15 04:23:12;;;;;;;10.05;3.75;;;25.90;99.90;;;;;;10096332;28;20033;-68
2023/08/15 04:28:04;;;;;;;6.38;3.90;;;25.90;99.90;;;;;;10097548;28;20781;-69
2023/08/15 04:32:55;;;;;;;6.43;4.00;;;25.90;99.90;;;;;;10097403;28;20037;-67
2023/08/15 04:37:46;;;;;;;6.38;3.55;;;25.90;99.90;;;;;;10078753;28;20029;-68
2023/08/15 04:42:37;;;;;;;6.13;4.85;;;26.00;99.90;;;;;;10094621;28;20040;-68
2023/08/15 04:47:28;;;;;;;7.20;3.83;;;25.80;99.90;;;;;;10097121;28;20056;-68
2023/08/15 04:52:19;;;;;;;4.90;3.50;;;25.90;99.90;;;;;;10096776;28;20045;-68
2023/08/15 04:57:09;;;;;;;7.22;4.03;;;25.60;99.90;;;;;;10096342;28;20079;-68
2023/08/15 05:02:00;;;;;;;8.77;4.10;;;25.60;99.90;;;;;;10090908;28;20028;-68
2023/08/15 05:06:51;;;;;;;5.53;4.57;;;25.70;99.90;;;;;;10073287;28;20029;-69
2023/08/15 05:11:45;;;;;;;9.55;4.82;;;25.60;99.90;;;;;;10087535;28;20053;-68
2023/08/15 05:16:36;;;;;;;8.13;4.65;;;25.50;99.90;;;;;;10088742;28;20032;-68
2023/08/15 05:21:28;;;;;;;8.77;5.15;;;25.80;99.90;;;;;;10091347;28;20475;-68
2023/08/15 05:26:18;;;;;;;9.90;4.85;;;25.70;99.90;;;;;;10077944;28;20029;-68
2023/08/15 05:31:09;;;;;;;6.47;4.60;;;25.50;99.90;;;;;;10096658;28;20410;-68
2023/08/15 05:35:59;;;;;;;6.28;4.40;;;25.50;99.90;;;;;;10096703;28;20041;-68
2023/08/15 05:40:50;;;;;;;5.70;4.57;;;25.50;99.90;;;;;;10084898;28;20079;-68
2023/08/15 05:45:43;;;;;;;6.70;4.45;;;25.50;99.90;;;;;;10095583;28;20037;-68
2023/08/15 05:50:34;;;;;;;6.32;4.20;;;25.60;99.90;;;;;;10077792;28;20395;-68
2023/08/15 05:55:25;;;;;;;7.28;4.55;;;25.60;99.90;;;;;;10095497;28;20036;-68
2023/08/15 06:00:15;;;;;;;7.03;5.50;;;25.60;99.90;;;;;;10092092;28;20044;-68
2023/08/15 06:05:07;;;;;;;6.28;4.70;;;25.70;99.90;;;;;;10095333;28;20398;-68
2023/08/15 06:09:58;;;;;;;6.05;4.53;;;25.70;99.90;;;;;;10096696;28;20035;-68
2023/08/15 06:14:48;;;;;;;6.80;5.13;;;25.70;99.90;;;;;;10097724;28;20542;-67
2023/08/15 06:19:39;;;;;;;11.20;4.75;;;25.70;99.90;;;;;;10097843;28;20033;-68
2023/08/15 06:24:30;;;;;;;7.10;4.72;;;25.70;99.90;;;;;;10101686;28;20036;-68
2023/08/15 06:29:21;;;;;;;6.53;4.82;;;25.70;99.90;;;;;;10084776;28;20120;-67
2023/08/15 06:34:15;;;;;;;7.72;4.65;;;25.80;99.90;;;;;;10101501;28;20127;-68
2023/08/15 06:39:06;;;;;;;8.55;5.38;;;25.80;99.90;;;;;;10083203;28;20340;-68
2023/08/15 06:43:56;;;;;;;10.40;5.25;;;25.80;99.90;;;;;;10101766;28;20335;-68
2023/08/15 06:48:47;;;;;;;9.32;5.82;;;25.90;99.90;;;;;;10083569;28;20032;-68
2023/08/15 06:53:41;;;;;;;9.05;5.35;;;25.90;99.90;;;;;;10082456;28;20037;-68
2023/08/15 06:58:32;;;;;;;7.80;4.97;;;25.80;99.90;;;;;;10100333;28;20025;-68
2023/08/15 07:03:22;;;;;;;6.40;5.53;;;25.70;99.90;;;;;;10100267;28;20040;-68
2023/08/15 07:08:13;;;;;;;8.63;5.80;;;25.70;99.90;;;;;;10096377;28;20463;-68
2023/08/15 07:13:03;;;;;;;9.30;5.60;;;25.70;99.90;;;;;;10097748;28;20041;-66
2023/08/15 07:17:54;;;;;;;6.95;5.07;;;25.80;99.90;;;;;;10094444;28;20099;-66
2023/08/15 07:22:46;;;;;;;7.82;5.93;;;26.10;99.90;;;;;;10102750;28;20067;-66
2023/08/15 07:27:37;;;;;;;7.30;5.18;;;26.20;99.90;;;;;;10098725;28;20054;-67
2023/08/15 07:32:28;;;;;;;7.03;4.65;;;26.30;99.90;;;;;;10099398;28;20048;-66
2023/08/15 07:37:19;;;;;;;7.68;5.45;;;26.40;99.90;;;;;;10110535;28;20017;-66
2023/08/15 07:42:10;;;;;;;8.13;5.50;;;26.50;99.90;;;;;;10098090;28;20036;-65
2023/08/15 07:47:00;;;;;;;7.18;4.75;;;26.50;99.90;;;;;;10098071;28;20431;-66
2023/08/15 07:51:52;;;;;;;7.18;4.88;;;26.50;99.90;;;;;;10095687;28;20159;-66
2023/08/15 07:56:43;;;;;;;11.32;6.75;;;26.70;99.90;;;;;;10086697;28;20033;-66
2023/08/15 08:01:34;;;;;;;8.15;6.10;;;26.70;99.90;;;;;;10068984;28;20035;-67
2023/08/15 08:06:25;;;;;;;8.63;6.18;;;26.70;99.90;;;;;;10090566;28;20021;-65
2023/08/15 08:11:15;;;;;;;6.43;5.13;;;26.70;99.90;;;;;;10097305;28;20053;-67
2023/08/15 08:16:06;;;;;;;8.57;5.55;;;26.70;99.90;;;;;;10095773;28;20041;-66
2023/08/15 08:20:56;;;;;;;9.15;5.50;;;27.00;99.90;;;;;;10098330;28;20488;-66
2023/08/15 08:25:47;;;;;;;12.00;6.35;;;27.10;99.90;;;;;;10097420;28;20430;-66
2023/08/15 08:30:38;;;;;;;8.27;6.20;;;27.10;99.90;;;;;;10097911;28;20442;-66
2023/08/15 08:35:28;;;;;;;8.38;5.25;;;27.10;99.90;;;;;;10097116;28;20337;-68
2023/08/15 08:40:19;;;;;;;6.18;4.60;;;27.20;99.90;;;;;;10098159;28;20088;-66
2023/08/15 08:45:11;;;;;;;7.70;4.75;;;27.20;99.90;;;;;;10096868;28;20052;-66
2023/08/15 08:50:02;;;;;;;5.22;4.45;;;27.30;99.90;;;;;;10079553;28;20040;-66
2023/08/15 08:54:53;;;;;;;6.70;4.55;;;27.20;99.90;;;;;;10096735;28;20380;-67
2023/08/15 08:59:45;;;;;;;9.40;4.72;;;27.10;99.90;;;;;;10079070;28;20170;-67
2023/08/15 09:04:36;;;;;;;9.38;4.72;;;27.20;99.90;;;;;;10095529;28;20191;-67
2023/08/15 09:09:27;;;;;;;6.53;4.45;;;27.30;99.90;;;;;;10097389;28;20350;-66
2023/08/15 09:14:18;;;;;;;6.10;4.60;;;27.40;99.90;;;;;;10080186;28;20139;-66
2023/08/15 09:19:08;;;;;;;6.90;4.20;;;27.30;99.90;;;;;;10097343;28;20071;-66
2023/08/15 09:24:00;;;;;;;6.93;4.00;;;27.40;99.90;;;;;;10097534;28;20563;-66
2023/08/15 09:28:51;;;;;;;6.95;4.45;;;27.30;99.90;;;;;;10096788;28;20188;-66
2023/08/15 09:33:42;;;;;;;6.65;4.97;;;27.40;99.90;;;;;;10078294;28;20063;-66
2023/08/15 09:38:36;;;;;;;4.85;4.20;;;27.50;99.90;;;;;;10096867;28;20210;-66
2023/08/15 09:43:27;;;;;;;5.13;4.30;;;27.40;99.90;;;;;;10095889;28;20461;-66
2023/08/15 09:48:19;;;;;;;5.30;4.00;;;27.40;99.90;;;;;;10096279;28;20104;-67
2023/08/15 09:53:10;;;;;;;5.88;4.53;;;27.40;99.90;;;;;;10096069;28;20048;-66
2023/08/15 09:58:00;;;;;;;8.07;4.40;;;27.40;99.90;;;;;;10103665;28;20029;-66
2023/08/15 10:03:05;;;;;;;10.45;5.25;;;27.50;99.90;;;;;;10103024;28;20414;-66
2023/08/15 10:07:58;;;;;;;6.35;4.28;;;27.40;99.90;;;;;;10102428;28;20526;-66
2023/08/15 10:12:50;;;;;;;6.18;3.97;;;27.50;99.90;;;;;;10105474;28;20055;-66
2023/08/15 10:17:41;;;;;;;8.27;5.15;;;27.40;99.90;;;;;;10094166;28;20037;-67
2023/08/15 10:22:34;;;;;;;4.53;3.53;;;27.50;99.90;;;;;;10103111;28;20032;-67
2023/08/15 10:27:25;;;;;;;5.15;3.83;;;27.60;99.90;;;;;;10103014;28;20063;-67
2023/08/15 10:32:23;;;;;;;3.97;2.85;;;27.80;99.90;;;;;;10104548;28;20437;-67
2023/08/15 10:37:33;;;;;;;4.60;2.45;;;27.80;99.90;;;;;;10102645;28;20083;-66
2023/08/15 10:42:25;;;;;;;3.70;2.22;;;27.70;99.90;;;;;;10101671;28;20438;-68
2023/08/15 10:47:24;;;;;;;4.75;2.47;;;27.70;99.90;;;;;;10102028;28;20033;-67
2023/08/15 10:52:15;;;;;;;4.88;1.85;;;27.80;99.90;;;;;;10101984;28;20090;-67
2023/08/15 10:57:05;;;;;;;5.10;2.00;;;27.80;99.90;;;;;;10101851;28;20475;-67
2023/08/15 11:01:56;;;;;;;2.72;1.45;;;27.80;99.90;;;;;;10102352;28;20109;-69
2023/08/15 11:06:48;;;;;;;2.92;1.92;;;27.90;99.90;;;;;;10100498;28;20029;-68
2023/08/15 11:11:40;;;;;;;3.45;2.30;;;27.90;99.90;;;;;;10109623;28;20084;-69
2023/08/15 11:16:30;;;;;;;3.10;1.73;;;27.90;99.90;;;;;;10100532;28;20021;-67
2023/08/15 11:21:21;;;;;;;2.70;1.70;;;27.90;99.90;;;;;;10101413;28;20025;-66
2023/08/15 11:26:16;;;;;;;3.70;1.80;;;28.00;99.90;;;;;;10095321;28;20024;-66
2023/08/15 11:31:09;;;;;;;3.90;2.38;;;27.90;99.90;;;;;;10100107;28;20417;-68
2023/08/15 11:36:01;;;;;;;4.57;1.58;;;28.00;99.90;;;;;;10094906;28;20032;-66
2023/08/15 11:40:51;;;;;;;2.75;1.70;;;28.10;99.90;;;;;;10074433;28;20029;-66
2023/08/15 11:45:43;;;;;;;1.90;1.40;;;28.20;99.90;;;;;;10094989;28;20115;-66
2023/08/15 11:50:35;;;;;;;3.45;2.08;;;28.30;99.90;;;;;;10097225;28;20049;-66
2023/08/15 11:55:31;;;;;;;3.72;2.35;;;28.30;99.90;;;;;;10098123;28;20455;-66
2023/08/15 12:00:22;;;;;;;3.97;2.30;;;28.50;99.90;;;;;;10099487;28;20083;-67
2023/08/15 12:05:15;;;;;;;3.00;1.90;;;28.60;99.90;;;;;;10099040;28;20017;-67
2023/08/15 12:10:07;;;;;;;2.55;2.03;;;28.60;99.90;;;;;;10097635;28;20562;-66
2023/08/15 12:14:57;;;;;;;2.25;1.80;;;28.70;99.90;;;;;;10101420;28;20037;-67
2023/08/15 12:19:48;;;;;;;2.67;2.05;;;28.80;99.90;;;;;;10098265;28;20082;-67
2023/08/15 12:24:38;;;;;;;2.92;2.30;;;28.90;99.90;;;;;;10099276;28;20033;-66
2023/08/15 12:29:29;;;;;;;4.35;2.00;;;28.90;99.90;;;;;;10098325;28;20064;-66
2023/08/15 12:34:20;;;;;;;4.72;1.80;;;28.90;99.90;;;;;;10097897;28;20051;-66
2023/08/15 12:39:10;;;;;;;4.57;2.00;;;29.00;99.90;;;;;;10097671;28;20386;-66
2023/08/15 12:44:01;;;;;;;1.70;1.40;;;29.10;99.90;;;;;;10098154;28;20375;-66
2023/08/15 12:48:52;;;;;;;3.20;1.55;;;29.20;99.90;;;;;;10097728;28;20031;-66
2023/08/15 12:53:42;;;;;;;2.17;1.50;;;29.30;99.90;;;;;;10097725;28;20049;-66
2023/08/15 12:58:33;;;;;;;3.70;1.92;;;29.40;99.90;;;;;;10097104;28;20021;-66
2023/08/15 13:03:24;;;;;;;4.47;1.60;;;29.50;99.90;;;;;;10093330;28;20035;-66
2023/08/15 13:08:15;;;;;;;3.63;1.70;;;29.50;99.90;;;;;;10076969;28;20035;-66
2023/08/15 13:13:06;;;;;;;1.85;1.40;;;29.70;99.90;;;;;;10098321;28;20041;-65
2023/08/15 13:17:57;;;;;;;2.20;1.50;;;29.80;99.90;;;;;;10095394;28;20401;-66
2023/08/15 13:22:47;;;;;;;2.40;1.60;;;29.90;99.90;;;;;;10095417;28;20578;-66
2023/08/15 13:27:38;;;;;;;2.58;1.85;;;29.90;99.90;;;;;;10096547;28;20040;-66
2023/08/15 13:32:29;;;;;;;4.28;2.30;;;29.90;99.90;;;;;;10097611;28;20406;-66
2023/08/15 13:37:19;;;;;;;2.72;1.63;;;29.70;99.90;;;;;;10101953;28;20103;-67
2023/08/15 13:42:10;;;;;;;2.92;1.60;;;29.50;99.90;;;;;;10107356;28;20025;-66
2023/08/15 13:47:01;;;;;;;2.58;1.58;;;29.40;99.90;;;;;;10101026;28;20035;-66
2023/08/15 13:51:51;;;;;;;4.05;1.40;;;29.30;99.90;;;;;;10085263;28;20718;-66
2023/08/15 13:56:42;;;;;;;2.22;1.20;;;29.20;99.90;;;;;;10103817;28;20039;-67
2023/08/15 14:01:33;;;;;;;2.95;1.90;;;29.10;99.90;;;;;;10103964;28;20112;-67
2023/08/15 14:06:23;;;;;;;1.80;1.40;;;29.00;99.90;;;;;;10102496;28;20048;-65
2023/08/15 14:11:14;;;;;;;3.13;1.48;;;29.30;99.90;;;;;;10105052;28;20471;-65
2023/08/15 14:16:05;;;;;;;3.70;1.52;;;29.60;99.90;;;;;;10099158;28;20032;-67
2023/08/15 14:20:56;;;;;;;2.10;1.60;;;30.20;99.90;;;;;;10099948;28;20025;-67
2023/08/15 14:25:46;;;;;;;2.45;1.45;;;30.30;99.90;;;;;;10099782;28;20037;-67
2023/08/15 14:30:39;;;;;;;1.83;1.30;;;30.50;99.90;;;;;;10099976;28;20453;-67
2023/08/15 14:35:30;;;;;;;3.55;1.75;;;30.60;99.90;;;;;;10084743;28;20032;-67
2023/08/15 14:40:20;;;;;;;1.65;1.38;;;30.70;99.90;;;;;;10100137;28;20025;-66
2023/08/15 14:45:11;;;;;;;1.58;1.27;;;30.80;99.90;;;;;;10081644;28;20099;-67
2023/08/15 14:50:03;;;;;;;3.22;1.40;;;30.80;99.90;;;;;;10099985;28;20529;-67
2023/08/15 14:54:54;;;;;;;1.60;1.20;;;31.10;99.90;;;;;;10098948;28;20037;-67
2023/08/15 14:59:45;;;;;;;1.42;1.00;;;31.30;99.90;;;;;;10098847;28;20150;-67
2023/08/15 15:04:35;;;;;;;1.73;1.10;;;31.40;99.90;;;;;;10099530;28;20116;-67
2023/08/15 15:09:26;;;;;;;1.58;1.17;;;31.60;99.90;;;;;;10099234;28;20025;-68
2023/08/15 15:14:17;;;;;;;3.20;2.08;;;31.70;99.90;;;;;;10064079;28;1120210;-67
2023/08/15 15:19:08;;;;;;;2.33;1.60;;;31.90;99.90;;;;;;10100680;28;20028;-67
2023/08/15 15:23:58;;;;;;;2.20;1.48;;;32.20;99.90;;;;;;10100568;28;20032;-68
2023/08/15 15:28:49;;;;;;;3.00;1.67;;;32.20;99.90;;;;;;10082771;28;20051;-67
2023/08/15 15:33:39;;;;;;;1.33;1.23;;;32.10;99.90;;;;;;10100105;28;20510;-67
2023/08/15 15:38:30;;;;;;;8.55;2.75;;;32.20;99.90;;;;;;10099759;28;20112;-67
2023/08/15 15:43:21;;;;;;;1.75;1.00;;;32.30;99.90;;;;;;10082124;28;20044;-66
2023/08/15 15:48:11;;;;;;;1.42;0.95;;;32.30;99.90;;;;;;10099863;28;20490;-66
2023/08/15 15:53:06;;;;;;;2.70;1.25;;;32.70;99.90;;;;;;10095233;28;20037;-69
2023/08/15 15:57:56;;;;;;;2.13;1.25;;;33.20;99.90;;;;;;10080329;28;20167;-66
2023/08/15 16:02:47;;;;;;;1.90;1.40;;;33.70;99.90;;;;;;10095079;28;20290;-66
2023/08/15 16:07:38;;;;;;;1.85;1.00;;;34.10;99.90;;;;;;10105746;28;20021;-66
2023/08/15 16:12:28;;;;;;;1.42;0.98;;;34.00;99.90;;;;;;10099583;28;20057;-68
2023/08/15 16:17:19;;;;;;;1.70;1.17;;;34.00;99.90;;;;;;10095547;28;20033;-67
2023/08/15 16:22:10;;;;;;;2.42;1.23;;;34.20;99.90;;;;;;10094814;28;20551;-67
2023/08/15 16:27:01;;;;;;;1.42;1.13;;;34.30;99.90;;;;;;10094661;28;20027;-66
2023/08/15 16:31:51;;;;;;;2.13;1.20;;;34.30;99.90;;;;;;10099383;28;20047;-66
2023/08/15 16:36:42;;;;;;;2.72;1.20;;;34.30;99.90;;;;;;10097759;28;20083;-67
2023/08/15 16:41:33;;;;;;;1.48;1.27;;;34.10;99.90;;;;;;10097754;28;20407;-67
2023/08/15 16:46:23;;;;;;;1.67;1.02;;;34.00;99.90;;;;;;10097014;28;20053;-66
2023/08/15 16:51:14;;;;;;;1.70;1.23;;;33.80;99.90;;;;;;10107234;28;20399;-67
2023/08/15 16:56:05;;;;;;;1.70;1.05;;;33.90;99.80;;;;;;10096914;28;20505;-69
2023/08/15 17:00:55;;;;;;;1.60;0.90;;;34.10;99.70;;;;;;10097645;28;20051;-69
2023/08/15 17:05:46;;;;;;;1.30;1.00;;;34.10;99.60;;;;;;10096886;28;20140;-68
2023/08/15 17:10:37;;;;;;;1.70;1.33;;;34.10;99.50;;;;;;10096075;28;20049;-69
2023/08/15 17:15:28;;;;;;;1.20;1.10;;;34.10;99.40;;;;;;10099694;28;20033;-68
2023/08/15 17:20:18;;;;;;;1.90;1.38;;;34.00;99.30;;;;;;10096678;28;20025;-68
2023/08/15 17:25:09;;;;;;;1.45;1.00;;;33.90;99.20;;;;;;10096459;28;20103;-68
2023/08/15 17:30:00;;;;;;;1.50;1.20;;;33.70;99.20;;;;;;10104907;28;20050;-68
2023/08/15 17:34:50;;;;;;;1.42;1.10;;;33.60;99.20;;;;;;10096260;28;20067;-67
2023/08/15 17:39:41;;;;;;;1.80;1.23;;;33.30;99.30;;;;;;10096628;28;20575;-67
2023/08/15 17:44:32;;;;;;;1.30;1.00;;;32.90;99.50;;;;;;10096022;28;20029;-68
2023/08/15 17:49:22;;;;;;;1.20;1.02;;;32.40;99.80;;;;;;10096769;28;20025;-67
2023/08/15 17:54:14;;;;;;;2.25;1.20;;;31.90;99.90;;;;;;10095531;28;20040;-67
2023/08/15 17:59:05;;;;;;;1.67;1.08;;;31.80;99.90;;;;;;10096768;28;20155;-67
2023/08/15 18:03:58;;;;;;;2.78;1.15;;;31.80;99.90;;;;;;10095430;28;20399;-66
2023/08/15 18:08:49;;;;;;;2.63;1.20;;;31.50;99.90;;;;;;10094778;28;20052;-66
2023/08/15 18:13:40;;;;;;;2.22;1.38;;;31.40;99.90;;;;;;10098938;28;20418;-67
2023/08/15 18:18:31;;;;;;;1.67;1.30;;;31.30;99.90;;;;;;10103029;28;20029;-67
2023/08/15 18:23:22;;;;;;;1.60;0.93;;;31.20;99.90;;;;;;10102608;28;20425;-67
2023/08/15 18:28:13;;;;;;;1.23;1.02;;;31.10;99.90;;;;;;10102656;28;20128;-67
2023/08/15 18:33:04;;;;;;;1.38;0.95;;;31.10;99.90;;;;;;10102851;28;20072;-67
2023/08/15 18:37:54;;;;;;;1.58;1.00;;;31.10;99.90;;;;;;10102930;28;20033;-66
2023/08/15 18:42:45;;;;;;;2.95;1.60;;;31.00;99.90;;;;;;10102204;28;20488;-66
2023/08/15 18:47:36;;;;;;;2.40;1.50;;;30.90;99.90;;;;;;10101912;28;20441;-66
2023/08/15 18:52:28;;;;;;;2.25;1.40;;;30.70;99.90;;;;;;10101325;28;20041;-68
2023/08/15 18:57:19;;;;;;;1.90;1.10;;;30.80;99.90;;;;;;10102042;28;20025;-70
2023/08/15 19:02:10;;;;;;;1.90;1.70;;;30.80;99.90;;;;;;10101057;28;20047;-69
2023/08/15 19:07:00;;;;;;;2.00;1.55;;;30.70;99.90;;;;;;10100160;28;20024;-68
2023/08/15 19:11:51;;;;;;;2.85;1.90;;;30.60;99.90;;;;;;10103823;28;20128;-67
2023/08/15 19:16:41;;;;;;;1.90;1.45;;;30.40;99.90;;;;;;10101429;28;20028;-68
2023/08/15 19:21:32;;;;;;;3.15;1.65;;;30.40;99.90;;;;;;10096960;28;20021;-68
2023/08/15 19:26:23;;;;;;;1.48;1.20;;;30.20;99.90;;;;;;10099639;28;20043;-66
2023/08/15 19:31:13;;;;;;;3.00;1.75;;;30.20;99.90;;;;;;10100965;28;20068;-67
2023/08/15 19:36:04;;;;;;;2.65;1.67;;;30.20;99.90;;;;;;10096389;28;20498;-66
2023/08/15 19:40:54;;;;;;;2.97;1.67;;;30.10;99.90;;;;;;10100236;28;20364;-66
2023/08/15 19:45:45;;;;;;;2.45;1.55;;;30.00;99.90;;;;;;10099756;28;20522;-66
2023/08/15 19:50:36;;;;;;;1.88;1.52;;;29.80;99.90;;;;;;10085484;28;20029;-67
2023/08/15 19:55:26;;;;;;;1.98;1.38;;;29.80;99.90;;;;;;10097171;28;20047;-66
2023/08/15 20:00:17;;;;;;;1.55;1.30;;;29.80;99.90;;;;;;10094130;28;20080;-65
2023/08/15 20:05:09;;;;;;;2.17;1.70;;;29.80;99.90;;;;;;10080477;28;20026;-66
2023/08/15 20:09:59;;;;;;;2.60;1.75;;;29.80;99.90;;;;;;10094912;28;20253;-65
2023/08/15 20:14:51;;;;;;;4.57;1.65;;;29.60;99.90;;;;;;10097152;28;20063;-65
2023/08/15 20:19:41;;;;;;;1.95;1.75;;;29.50;99.90;;;;;;10094855;28;20040;-67
2023/08/15 20:24:34;;;;;;;2.78;1.73;;;29.50;99.90;;;;;;10097632;28;20033;-66
2023/08/15 20:29:25;;;;;;;1.65;1.30;;;29.40;99.90;;;;;;10097720;28;20039;-66
2023/08/15 20:34:16;;;;;;;2.38;1.23;;;29.30;99.90;;;;;;10097851;28;20041;-65
2023/08/15 20:39:06;;;;;;;3.90;1.45;;;29.20;99.90;;;;;;10079222;28;20123;-65
2023/08/15 20:43:57;;;;;;;2.25;1.35;;;29.10;99.90;;;;;;10096834;28;20063;-67
2023/08/15 20:48:47;;;;;;;1.77;1.35;;;29.10;99.90;;;;;;10078953;28;20036;-65
2023/08/15 20:53:38;;;;;;;1.67;1.30;;;29.00;99.90;;;;;;10096846;28;20498;-67
2023/08/15 20:58:29;;;;;;;2.08;1.30;;;29.10;99.90;;;;;;10097741;28;20039;-66
2023/08/15 21:03:19;;;;;;;1.92;1.10;;;28.90;99.90;;;;;;10096126;28;20331;-66
2023/08/15 21:08:10;;;;;;;1.55;1.20;;;28.90;99.90;;;;;;10095272;28;20025;-66
2023/08/15 21:13:02;;;;;;;1.73;1.30;;;28.80;99.90;;;;;;10081025;28;20044;-67
2023/08/15 21:17:53;;;;;;;2.95;1.70;;;28.70;99.90;;;;;;10096178;28;20348;-67
2023/08/15 21:22:44;;;;;;;1.58;0.88;;;28.60;99.90;;;;;;10092177;28;20111;-66
2023/08/15 21:27:35;;;;;;;3.42;1.40;;;28.70;99.90;;;;;;10093464;28;20619;-66
2023/08/15 21:32:25;;;;;;;1.40;1.20;;;28.80;99.90;;;;;;10095644;28;20192;-66
2023/08/15 21:37:16;;;;;;;1.63;1.20;;;28.70;99.90;;;;;;10095707;28;20525;-66
2023/08/15 21:42:07;;;;;;;1.40;1.02;;;28.60;99.90;;;;;;10095767;28;20070;-66
2023/08/15 21:46:57;;;;;;;1.88;1.20;;;28.60;99.90;;;;;;10095651;28;20017;-66
2023/08/15 21:51:48;;;;;;;3.90;1.80;;;28.60;99.90;;;;;;10100215;28;20041;-66
2023/08/15 21:56:38;;;;;;;3.35;1.73;;;28.60;99.90;;;;;;10099940;28;20104;-66
2023/08/15 22:01:29;;;;;;;2.15;1.13;;;28.60;99.90;;;;;;10102549;28;20032;-66
2023/08/15 22:06:20;;;;;;;2.03;1.50;;;28.50;99.90;;;;;;10102723;28;20030;-66
2023/08/15 22:11:10;;;;;;;1.63;1.23;;;28.40;99.90;;;;;;10102414;28;20124;-70
2023/08/15 22:16:01;;;;;;;3.75;1.00;;;28.30;99.90;;;;;;10102374;28;20455;-70
2023/08/15 22:20:53;;;;;;;2.58;1.02;;;28.50;99.90;;;;;;10101552;28;20029;-68
2023/08/15 22:25:48;;;;;;;2.53;1.30;;;28.40;99.90;;;;;;10083693;28;20118;-69
2023/08/15 22:30:39;;;;;;;2.83;1.77;;;28.40;99.90;;;;;;10102724;28;20025;-69
2023/08/15 22:35:41;;;;;;;1.50;1.30;;;28.30;99.90;;;;;;10101562;28;20517;-69
2023/08/15 22:40:32;;;;;;;2.03;1.20;;;28.30;99.90;;;;;;10102801;28;20079;-69
2023/08/15 22:45:23;;;;;;;1.60;1.20;;;28.20;99.90;;;;;;10101700;28;20025;-68
2023/08/15 22:50:14;;;;;;;1.85;1.55;;;28.20;99.90;;;;;;10101957;28;20132;-69
2023/08/15 22:55:05;;;;;;;3.33;0.85;;;28.10;99.90;;;;;;10091552;28;20503;-67
2023/08/15 22:59:55;;;;;;;2.55;1.30;;;28.00;99.90;;;;;;10101132;28;20025;-68
2023/08/15 23:04:46;;;;;;;1.85;1.08;;;27.90;99.90;;;;;;10095056;28;20029;-69
2023/08/15 23:09:37;;;;;;;2.13;1.10;;;27.90;99.90;;;;;;10095646;28;20120;-68
2023/08/15 23:14:28;;;;;;;1.33;1.02;;;27.80;99.90;;;;;;10099404;28;20057;-68
2023/08/15 23:19:19;;;;;;;1.20;1.08;;;27.90;99.90;;;;;;10083332;28;20031;-68
2023/08/15 23:24:09;;;;;;;2.78;1.27;;;27.90;99.90;;;;;;10081566;28;20131;-68
2023/08/15 23:29:03;;;;;;;3.67;1.38;;;27.80;99.90;;;;;;10100727;28;20155;-69
2023/08/15 23:33:54;;;;;;;2.97;0.93;;;27.90;99.90;;;;;;10080456;28;20111;-68
2023/08/15 23:38:45;;;;;;;2.08;1.10;;;27.70;99.90;;;;;;10081752;28;20098;-70
2023/08/15 23:43:35;;;;;;;3.13;1.20;;;27.70;99.90;;;;;;10106051;28;20123;-70
2023/08/15 23:48:26;;;;;;;1.67;1.52;;;27.60;99.90;;;;;;10098914;28;20407;-70
2023/08/15 23:53:17;;;;;;;1.70;1.20;;;27.30;99.90;;;;;;10083271;28;20033;-70
2023/08/15 23:58:08;;;;;;;2.15;1.08;;;27.30;99.90;;;;;;10105271;28;20434;-70
